Dolfijngracht — PBSZ — position and weather

sailwx.info

Track history (hours):
 
Tides and Currents Weather Stations Pressure Air Temp Water Temp Dewpoint Dewpoint Depression Visibility Wind Speed Wind Dir Waves Ship Positions

Dolfijngracht

Last reported at 2017-Oct-18 04:43 UTC. Time now 2017-Oct-18 16:59 UTC.
Position N 41°33' W 071°20'.

Length 157 m; draft 7.4 m.

Type: Cargo ship. MMSI: 245033000.

Date/timePositionNaut miles runAvg speedWind from/ knotsBaromVisibWave heightAir tempDewpointWater temp
2017-Oct-18 04:43N 41°33' W 071°20'  
2017-Oct-10 17:34N 36°01' W 026°03'115.1
2017-Oct-10 17:28N 36°01' W 026°02'715.2
2017-Oct-10 17:00N 36°01' W 025°53'714.9
2017-Oct-10 16:30N 36°01' W 025°44'714.8
2017-Oct-10 16:01N 36°00' W 025°35'714.8
2017-Oct-10 15:30N 36°00' W 025°25'714.8
2017-Oct-10 15:00N 36°00' W 025°16'1514.7
2017-Oct-10 14:00N 35°60' W 024°58'714.9
2017-Oct-10 13:30N 35°59' W 024°49'715.0
2017-Oct-10 13:00N 35°59' W 024°39'714.9
2017-Oct-10 12:30N 35°59' W 024°30'714.7
2017-Oct-10 12:00N 35°59' W 024°21'714.9
2017-Oct-10 11:30N 35°59' W 024°12'35114.8
2017-Oct-09 11:50N 35°59' W 016°59'19514.8
2017-Oct-08 22:39N 35°58' W 012°58'214.6
2017-Oct-08 22:30N 35°58' W 012°55'714.6
2017-Oct-08 22:00N 35°58' W 012°46'714.6
2017-Oct-08 21:30N 35°58' W 012°37'714.6
2017-Oct-08 21:00N 35°58' W 012°28'714.6
2017-Oct-08 20:30N 35°58' W 012°19'714.7
2017-Oct-08 20:00N 35°58' W 012°10'714.9
2017-Oct-08 19:30N 35°58' W 012°01'1914.9
2017-Oct-08 18:12N 35°58' W 011°37'315.1
2017-Oct-08 18:00N 35°58' W 011°33'815.3
2017-Oct-08 17:30N 35°58' W 011°24'815.0
2017-Oct-08 17:00N 35°58' W 011°15'815.2
2017-Oct-08 16:30N 35°58' W 011°05'815.4
2017-Oct-08 16:00N 35°58' W 010°56'1215.9
2017-Oct-08 15:16N 35°58' W 010°41'415.0
2017-Oct-08 14:59N 35°58' W 010°36'815.8
2017-Oct-08 14:30N 35°58' W 010°26'815.6
2017-Oct-08 14:00N 35°58' W 010°17'815.5
2017-Oct-08 13:30N 35°58' W 010°07'815.4
2017-Oct-08 13:00N 35°58' W 009°58'815.1
2017-Oct-08 12:30N 35°58' W 009°48'715.1
2017-Oct-08 12:00N 35°58' W 009°39'815.4
2017-Oct-08 11:30N 35°58' W 009°30'815.1
2017-Oct-08 11:00N 35°58' W 009°20'714.8
2017-Oct-08 10:30N 35°58' W 009°11'714.7
2017-Oct-08 10:00N 35°58' W 009°02'714.9
2017-Oct-08 09:30N 35°58' W 008°53'815.1
2017-Oct-08 09:00N 35°58' W 008°43'814.9
2017-Oct-08 08:30N 35°58' W 008°34'715.1
2017-Oct-08 08:00N 35°58' W 008°25'714.9
2017-Oct-08 07:30N 35°58' W 008°16'2715.1
2017-Oct-08 05:41N 35°58' W 007°42'1015.5
2017-Oct-08 05:02N 35°58' W 007°29'  
Track history (hours):
 
Tides and Currents Weather Stations Pressure Air Temp Water Temp Dewpoint Dewpoint Depression Visibility Wind Speed Wind Dir Waves Ship Positions

Dolfijngracht

Last reported at 2017-Oct-18 04:43 UTC. Time now 2017-Oct-18 16:59 UTC.
Position N 41°33' W 071°20'.

Length 157 m; draft 7.4 m.

Type: Cargo ship. MMSI: 245033000.

Date/timePositionNaut miles runAvg speedWind from/ knotsBaromVisibWave heightAir tempDewpointWater temp
2017-Oct-18 04:43N 41°33' W 071°20'  
2017-Oct-10 17:34N 36°01' W 026°03'115.1
2017-Oct-10 17:28N 36°01' W 026°02'715.2
2017-Oct-10 17:00N 36°01' W 025°53'714.9
2017-Oct-10 16:30N 36°01' W 025°44'714.8
2017-Oct-10 16:01N 36°00' W 025°35'714.8
2017-Oct-10 15:30N 36°00' W 025°25'714.8
2017-Oct-10 15:00N 36°00' W 025°16'1514.7
2017-Oct-10 14:00N 35°60' W 024°58'714.9
2017-Oct-10 13:30N 35°59' W 024°49'715.0
2017-Oct-10 13:00N 35°59' W 024°39'714.9
2017-Oct-10 12:30N 35°59' W 024°30'714.7
2017-Oct-10 12:00N 35°59' W 024°21'714.9
2017-Oct-10 11:30N 35°59' W 024°12'35114.8
2017-Oct-09 11:50N 35°59' W 016°59'19514.8
2017-Oct-08 22:39N 35°58' W 012°58'214.6
2017-Oct-08 22:30N 35°58' W 012°55'714.6
2017-Oct-08 22:00N 35°58' W 012°46'714.6
2017-Oct-08 21:30N 35°58' W 012°37'714.6
2017-Oct-08 21:00N 35°58' W 012°28'714.6
2017-Oct-08 20:30N 35°58' W 012°19'714.7
2017-Oct-08 20:00N 35°58' W 012°10'714.9
2017-Oct-08 19:30N 35°58' W 012°01'1914.9
2017-Oct-08 18:12N 35°58' W 011°37'315.1
2017-Oct-08 18:00N 35°58' W 011°33'815.3
2017-Oct-08 17:30N 35°58' W 011°24'815.0
2017-Oct-08 17:00N 35°58' W 011°15'815.2
2017-Oct-08 16:30N 35°58' W 011°05'815.4
2017-Oct-08 16:00N 35°58' W 010°56'1215.9
2017-Oct-08 15:16N 35°58' W 010°41'415.0
2017-Oct-08 14:59N 35°58' W 010°36'815.8
2017-Oct-08 14:30N 35°58' W 010°26'815.6
2017-Oct-08 14:00N 35°58' W 010°17'815.5
2017-Oct-08 13:30N 35°58' W 010°07'815.4
2017-Oct-08 13:00N 35°58' W 009°58'815.1
2017-Oct-08 12:30N 35°58' W 009°48'715.1
2017-Oct-08 12:00N 35°58' W 009°39'815.4
2017-Oct-08 11:30N 35°58' W 009°30'815.1
2017-Oct-08 11:00N 35°58' W 009°20'714.8
2017-Oct-08 10:30N 35°58' W 009°11'714.7
2017-Oct-08 10:00N 35°58' W 009°02'714.9
2017-Oct-08 09:30N 35°58' W 008°53'815.1
2017-Oct-08 09:00N 35°58' W 008°43'814.9
2017-Oct-08 08:30N 35°58' W 008°34'715.1
2017-Oct-08 08:00N 35°58' W 008°25'714.9
2017-Oct-08 07:30N 35°58' W 008°16'2715.1
2017-Oct-08 05:41N 35°58' W 007°42'1015.5
2017-Oct-08 05:02N 35°58' W 007°29'  

Dump ship's entire track history